In Rescue
 
Open Full Screen Window  High Contrast Mode
Wind Gusting 16 knots
07
February 25, 2021 4:47 PM EST
Weather Information
Wind Direction
  280 °
Wind Speed
  07 kt (8 mph)
Wind Gust
  16 kt (18 mph)
Altimeter
30.23 in
Visibility
10 SM
Temperature
01° C
34° F
Dewpoint
-08° C
18° F
Humidity
51%
Sky Condition
Overcast @ 4,100 ft
Scattered @ 3,500 ft
VFR

METAR KACB 252147Z AUTO 28007G16KT 10SM SCT035 OVC041 01/M08 A3023 RMK AO2 T00071077

FAA Disclaimer: The data displayed is for advisory purposes only and is not to be used for flight planning or operations.